Latest Weather Observations for Fortescue Dave Forrest

IDW60801

Issued at 7:33 pm WST Saturday 27 August 2016 (issued every 30 minutes, with the page automatically refreshed every 10 minutes)

About weather observations | Map of weather stations | Latest weather observations for WA | Other Formats
Station Details ID: 505056 Name: FORTESCUE DAVE FORREST Lat: -22.29 Lon: 119.43 Height: 474.6 m
Data from the previous 72 hours. | See also: Recent months for locations in Western Australia
Date/Time
WST
Temp
°C
App
Temp
°C
Dew
Point
°C
Rel
Hum
%
Delta-T
°C
Wind Press
QNH
hPa
Press
MSL
hPa
Rain since
9am
mm
Dir  Spd
km/h
Gust
km/h
Spd
kts
Gust
kts
27/07:30pm 23.1 18.5 6.4 34 8.7 NW 20 28 11 15 1012.6 1011.4 0.0
27/07:00pm 23.6 18.8 5.5 31 9.4 NW 20 26 11 14 1012.2 1011.0 0.0
27/06:30pm 24.0 19.6 4.9 29 9.8 NW 17 24 9 13 1012.2 1011.0 0.0
27/06:00pm 24.8 19.7 4.0 26 10.5 NW 20 30 11 16 1012.1 1010.9 0.0
27/05:30pm 25.7 19.5 2.4 22 11.5 NW 24 33 13 18 1011.8 1010.6 0.0
27/05:00pm 26.3 19.0 0.1 18 12.5 NW 28 39 15 21 1011.8 1010.6 0.0
27/04:30pm 27.2 20.5 -0.8 16 13.2 NW 24 39 13 21 1011.4 1010.1 0.0
27/04:00pm 27.0 19.6 -0.9 16 13.1 NW 28 44 15 24 1011.5 1010.2 0.0
27/03:30pm 27.2 18.9 -1.7 15 13.4 NW 32 46 17 25 1011.6 1010.3 0.0
27/03:00pm 27.1 19.8 -2.7 14 13.6 WNW 26 43 14 23 1011.8 1010.6 0.0
27/02:30pm 27.3 19.5 -3.5 13 13.9 NW 28 48 15 26 1011.9 1010.7 0.0
27/02:15pm 27.4 19.3 -3.4 13 13.9 NW 30 48 16 26 1012.1 1010.9 0.0
27/02:00pm 27.5 19.0 -3.3 13 13.9 NW 32 44 17 24 1012.4 1011.2 0.0
27/01:30pm 27.7 19.6 -3.2 13 14.0 NW 30 46 16 25 1012.9 1011.7 0.0
27/01:00pm 28.0 20.7 -3.0 13 14.2 NW 26 43 14 23 1013.6 1012.4 0.0
27/12:40pm 26.7 18.2 -3.0 14 13.4 NW 32 50 17 27 1013.7 1012.5 0.0
27/12:30pm 27.0 18.3 -3.7 13 13.7 NW 33 50 18 27 1013.9 1012.7 0.0
27/12:16pm 27.0 19.3 -2.7 14 13.5 NW 28 46 15 25 1013.8 1012.6 0.0
27/12:00pm 26.5 18.0 -3.1 14 13.3 NW 32 44 17 24 1014.3 1013.1 0.0
27/11:45am 26.3 18.6 -3.3 14 13.3 NW 28 46 15 25 1014.5 1013.3 0.0
27/11:30am 26.7 19.8 -3.0 14 13.4 NW 24 37 13 20 1014.8 1013.6 0.0
27/11:00am 25.4 19.2 -3.1 15 12.7 WNW 20 37 11 20 1015.4 1014.3 0.0
27/10:30am 25.0 19.8 -2.5 16 12.4 NW 15 24 8 13 1016.2 1015.0 0.0
27/10:00am 23.5 18.2 -3.7 16 11.8 WNW 15 22 8 12 1016.6 1015.4 0.0
27/09:30am 22.0 17.6 -2.7 19 10.8 W 11 19 6 10 1016.6 1015.4 0.0
27/09:00am 21.1 16.4 -2.0 21 10.1 W 13 19 7 10 1016.7 1015.5 0.0
27/08:30am 19.6 15.7 -1.5 24 9.2 WSW 9 15 5 8 1016.6 1015.4 0.0
27/08:00am 17.9 15.4 -0.8 28 8.2 S 2 4 1 2 1016.5 1015.3 0.0
27/07:30am 16.1 13.3 -0.2 33 7.1 NE 4 4 2 2 1016.1 1014.9 0.0
27/07:00am 14.5 12.0 -0.8 35 6.5 WNW 2 6 1 3 1015.9 1014.7 0.0
27/06:30am 13.0 10.0 -1.7 36 6.0 NNW 4 6 2 3 1015.1 1013.9 0.0
27/06:00am 12.7 9.7 -2.0 36 6.0 N 4 6 2 3 1014.6 1013.4 0.0
27/05:30am 13.1 9.5 -2.4 34 6.3 NW 7 9 4 5 1014.3 1013.1 0.0
27/05:00am 13.0 9.4 -2.1 35 6.1 NW 7 7 4 4 1014.2 1013.0 0.0
27/04:30am 12.4 8.9 -3.0 34 6.1 N 6 9 3 5 1014.2 1013.0 0.0
27/04:00am 11.5 7.8 -3.0 36 5.7 NW 7 7 4 4 1014.4 1013.2 0.0
27/03:30am 11.8 8.1 -3.1 35 5.9 NNW 7 7 4 4 1014.2 1013.0 0.0
27/03:00am 13.9 9.8 -3.4 30 6.9 WSW 9 19 5 10 1014.3 1013.1 0.0
27/02:30am 15.7 11.8 -4.2 25 7.9 NW 7 7 4 4 1014.6 1013.4 0.0
27/02:00am 14.5 10.8 -4.2 27 7.4 NNW 6 7 3 4 1014.8 1013.6 0.0
27/01:30am 12.7 8.5 -3.5 32 6.4 NNW 9 13 5 7 1015.0 1013.8 0.0
27/01:00am 15.0 11.1 -4.3 26 7.6 N 7 9 4 5 1015.3 1014.1 0.0
27/12:30am 15.4 11.1 -4.5 25 7.9 N 9 9 5 5 1015.8 1014.6 0.0
27/12:00am 14.6 11.0 -3.7 28 7.3 NNW 6 7 3 4 1016.0 1014.8 0.0
 
Date/Time
WST
Temp
°C
App
Temp
°C
Dew
Point
°C
Rel
Hum
%
Delta-T
°C
Wind Press
QNH
hPa
Press
MSL
hPa
Rain since
9am
mm
Dir  Spd
km/h
Gust
km/h
Spd
kts
Gust
kts
26/11:30pm 13.7 10.1 -4.0 29 7.0 NNW 6 9 3 5 1016.1 1014.9 0.0
26/11:00pm 15.7 10.3 -4.2 25 7.9 NNE 15 15 8 8 1016.0 1014.8 0.0
26/10:30pm 15.9 12.1 -4.1 25 8.0 NNE 7 11 4 6 1016.6 1015.4 0.0
26/10:00pm 16.1 12.3 -3.9 25 8.1 N 7 9 4 5 1016.6 1015.4 0.0
26/09:30pm 16.7 12.5 -3.9 24 8.4 NNW 9 11 5 6 1016.7 1015.5 0.0
26/09:00pm 15.8 12.0 -3.6 26 7.8 NNW 7 9 4 5 1017.0 1015.8 0.0
26/08:30pm 17.4 13.2 -3.9 23 8.7 N 9 11 5 6 1017.1 1015.9 0.0
26/08:00pm 17.3 13.7 -4.0 23 8.7 NW 6 7 3 4 1017.3 1016.2 0.0
26/07:30pm 17.8 14.0 -3.6 23 8.8 NNW 7 9 4 5 1016.8 1015.6 0.0
26/07:00pm 19.2 15.3 -4.3 20 9.7 N 7 9 4 5 1016.5 1015.3 0.0
26/06:30pm 20.8 16.9 -5.1 17 10.7 NNW 7 9 4 5 1016.2 1015.0 0.0
26/06:00pm 22.7 18.7 -5.2 15 11.7 N 7 11 4 6 1015.9 1014.7 0.0
26/05:30pm 24.5 20.2 -4.7 14 12.6 NNE 9 13 5 7 1015.5 1014.4 0.0
26/05:00pm 25.3 21.3 -6.1 12 13.2 N 7 13 4 7 1015.4 1014.3 0.0
26/04:30pm 25.3 20.1 -6.1 12 13.3 NNE 13 19 7 10 1015.3 1014.1 0.0
26/04:00pm 25.5 20.3 -6.0 12 13.3 N 13 22 7 12 1015.2 1014.0 0.0
26/03:30pm 25.3 20.2 -5.1 13 13.1 ENE 13 30 7 16 1015.2 1014.0 0.0
26/03:00pm 25.2 19.7 -5.1 13 13.0 NE 15 24 8 13 1015.2 1014.0 0.0
26/02:30pm 24.9 19.4 -5.4 13 12.9 NE 15 26 8 14 1015.4 1014.3 0.0
26/02:00pm 24.5 19.0 -5.7 13 12.7 ENE 15 24 8 13 1015.9 1014.7 0.0
26/01:30pm 23.7 18.3 -4.4 15 12.1 ENE 15 26 8 14 1016.4 1015.2 0.0
26/01:00pm 23.7 18.4 -3.6 16 11.9 ENE 15 32 8 17 1017.0 1015.8 0.0
26/12:30pm 23.5 18.3 -2.9 17 11.6 ENE 15 28 8 15 1017.8 1016.7 0.0
26/12:00pm 22.9 18.0 -3.4 17 11.4 NNE 13 22 7 12 1018.4 1017.2 0.0
26/11:30am 22.5 17.0 -2.2 19 10.9 NE 17 30 9 16 1019.0 1017.8 0.0
26/11:00am 21.6 15.2 -1.6 21 10.3 ENE 22 30 12 16 1019.4 1018.3 0.0
26/10:30am 20.9 14.1 -1.6 22 10.0 ENE 24 33 13 18 1019.9 1018.8 0.0
26/10:00am 19.9 13.2 -1.2 24 9.3 ENE 24 32 13 17 1020.2 1019.0 0.0
26/09:30am 19.0 11.6 -0.9 26 8.8 ENE 28 33 15 18 1020.2 1019.0 0.0
26/09:00am 18.7 11.2 -1.2 26 8.7 E 28 39 15 21 1020.0 1018.9 0.0
26/08:30am 17.6 10.9 -1.1 28 8.1 E 24 33 13 18 1020.0 1018.9 0.0
26/08:00am 14.1 10.3 -0.4 37 6.2 ESE 9 22 5 12 1019.9 1018.8 0.0
26/07:30am 10.4 7.8 -1.9 42 4.9 ESE 2 4 1 2 1020.0 1018.9 0.0
26/07:00am 8.8 6.1 -2.5 45 4.3 ENE 2 4 1 2 1019.6 1018.5 0.0
26/06:30am 7.2 3.8 -2.2 51 3.6 SSE 6 6 3 3 1019.3 1018.2 0.0
26/06:00am 6.6 3.1 -2.5 52 3.4 SE 6 7 3 4 1019.0 1017.8 0.0
26/05:30am 7.2 3.7 -2.8 49 3.8 SSE 6 9 3 5 1018.9 1017.7 0.0
26/05:00am 8.1 3.7 -2.8 46 4.1 SSE 11 13 6 7 1018.5 1017.3 0.0
26/04:30am 10.0 6.4 -2.3 42 4.8 SSE 7 11 4 6 1018.1 1016.9 0.0
26/04:00am 12.4 7.4 -1.5 38 5.7 ESE 15 20 8 11 1017.7 1016.6 0.0
26/03:30am 13.3 8.6 -1.8 35 6.2 E 13 19 7 10 1017.6 1016.5 0.0
26/03:00am 14.2 8.4 -1.8 33 6.6 E 19 24 10 13 1017.8 1016.7 0.0
26/02:30am 14.5 8.7 -1.6 33 6.7 E 19 24 10 13 1018.1 1016.9 0.0
26/02:00am 14.7 9.2 -1.8 32 6.9 E 17 24 9 13 1018.4 1017.2 0.0
26/01:30am 14.5 9.4 -2.0 32 6.8 E 15 20 8 11 1018.6 1017.4 0.0
26/01:00am 14.8 9.3 -2.1 31 7.0 E 17 22 9 12 1018.6 1017.4 0.0
26/12:30am 15.2 9.3 -2.2 30 7.2 E 19 24 10 13 1018.6 1017.4 0.0
26/12:00am 14.6 9.5 -2.3 31 6.9 E 15 19 8 10 1019.1 1018.0 0.0
 
Date/Time
WST
Temp
°C
App
Temp
°C
Dew
Point
°C
Rel
Hum
%
Delta-T
°C
Wind Press
QNH
hPa
Press
MSL
hPa
Rain since
9am
mm
Dir  Spd
km/h
Gust
km/h
Spd
kts
Gust
kts
25/11:30pm 14.5 10.1 -2.4 31 6.9 E 11 15 6 8 1019.3 1018.2 0.0
25/11:00pm 15.1 10.3 -2.8 29 7.3 E 13 17 7 9 1019.4 1018.3 0.0
25/10:30pm 12.8 9.7 -2.3 35 6.1 E 4 6 2 3 1019.6 1018.5 0.0
25/10:00pm 12.8 9.7 -2.3 35 6.1 E 4 6 2 3 1019.8 1018.7 0.0
25/09:30pm 13.7 10.9 -3.1 31 6.7 NNE 2 4 1 2 1019.8 1018.7 0.0
25/09:00pm 14.3 11.5 -3.0 30 7.0 ENE 2 6 1 3 1019.8 1018.7 0.0
25/08:30pm 15.8 12.6 -3.6 26 7.9 SE 4 6 2 3 1019.6 1018.5 0.0
25/08:00pm 16.0 13.2 -3.0 27 7.8 E 2 6 1 3 1019.3 1018.2 0.0
25/07:30pm 16.6 13.4 -3.5 25 8.2 ESE 4 6 2 3 1019.0 1017.8 0.0
25/07:00pm 17.6 14.4 -3.7 23 8.7 E 4 6 2 3 1018.7 1017.5 0.0
25/06:30pm 18.8 14.5 -4.6 20 9.6 ESE 9 9 5 5 1018.3 1017.1 0.0
25/06:00pm 20.4 16.1 -4.7 18 10.4 ESE 9 13 5 7 1018.1 1016.9 0.0
25/05:30pm 22.8 16.9 -5.2 15 11.7 ESE 17 24 9 13 1017.8 1016.7 0.0
25/05:00pm 23.5 18.1 -4.6 15 12.0 ESE 15 22 8 12 1017.5 1016.4 0.0
25/04:30pm 24.1 18.3 -5.0 14 12.4 E 17 28 9 15 1017.3 1016.2 0.0
25/04:00pm 23.7 17.9 -4.4 15 12.1 E 17 28 9 15 1017.1 1015.9 0.0
25/03:30pm 24.0 17.8 -5.1 14 12.4 E 19 32 10 17 1017.2 1016.1 0.0
25/03:00pm 23.7 17.4 -4.4 15 12.1 E 20 32 11 17 1017.1 1015.9 0.0
25/02:30pm 23.3 17.9 -4.8 15 11.9 ESE 15 28 8 15 1017.4 1016.3 0.0
25/02:00pm 24.0 17.9 -4.2 15 12.2 E 19 28 10 15 1017.6 1016.5 0.0
25/01:30pm 23.1 16.8 -4.1 16 11.7 E 20 30 11 16 1018.0 1016.8 0.0
25/01:00pm 23.5 16.9 -2.9 17 11.6 ESE 22 32 12 17 1018.2 1017.0 0.0
25/12:30pm 22.4 15.8 -3.1 18 11.1 E 22 33 12 18 1018.5 1017.3 0.0
25/12:00pm 21.7 14.8 -2.9 19 10.7 ESE 24 41 13 22 1019.0 1017.8 0.0
25/11:30am 21.5 15.3 -3.1 19 10.6 ESE 20 33 11 18 1019.6 1018.5 0.0
25/11:00am 20.3 13.4 -2.7 21 9.9 ESE 24 35 13 19 1020.0 1018.9 0.0
25/10:30am 20.3 13.4 -2.7 21 9.9 ESE 24 35 13 19 1020.3 1019.1 0.0
25/10:00am 19.4 11.4 -2.2 23 9.3 E 30 39 16 21 1020.3 1019.1 0.0
25/09:30am 19.2 12.5 -1.3 25 9.0 E 24 33 13 18 1020.5 1019.3 0.0
25/09:00am 16.8 11.4 -1.3 29 7.7 ESE 17 26 9 14 1020.4 1019.2 0.0
25/08:30am 14.9 9.5 -1.6 32 6.9 ESE 17 20 9 11 1020.0 1018.9 0.0
25/08:00am 12.7 8.4 -2.0 36 6.0 ESE 11 17 6 9 1019.9 1018.8 0.0
25/07:30am 10.5 6.2 -1.9 42 4.9 ESE 11 17 6 9 1019.8 1018.7 0.0
25/07:00am 8.6 5.6 -2.1 47 4.1 ESE 4 6 2 3 1019.5 1018.4 0.0
25/06:30am 6.9 3.8 -2.5 51 3.5 ESE 4 7 2 4 1019.2 1018.1 0.0
25/06:00am 6.7 3.0 -2.7 51 3.5 SE 7 13 4 7 1019.0 1017.8 0.0
25/05:30am 6.8 2.4 -2.6 51 3.5 SSE 11 17 6 9 1018.5 1017.3 0.0
25/05:00am 7.1 3.6 -2.6 50 3.6 SE 6 7 3 4 1018.1 1016.9 0.0
25/04:30am 7.7 4.0 -2.6 48 3.9 S 7 9 4 5 1018.0 1016.8 0.0
25/04:00am 7.9 4.4 -2.7 47 4.0 SSE 6 9 3 5 1017.8 1016.7 0.0
25/03:30am 8.4 4.7 -2.5 46 4.2 SE 7 9 4 5 1017.6 1016.5 0.0
25/03:00am 9.1 5.1 -2.5 44 4.5 SE 9 11 5 6 1017.5 1016.4 0.0
25/02:30am 9.2 5.7 -2.7 43 4.6 SSE 6 9 3 5 1017.6 1016.5 0.0
25/02:00am 9.4 5.7 -2.5 43 4.6 SSE 7 9 4 5 1017.6 1016.5 0.0
25/01:30am 9.7 6.2 -2.6 42 4.8 S 6 11 3 6 1017.7 1016.6 0.0
25/01:00am 11.4 8.0 -2.4 38 5.5 SSE 6 9 3 5 1017.8 1016.7 0.0
25/12:30am 10.8 8.1 -2.2 40 5.2 S 2 4 1 2 1018.1 1016.9 0.0
25/12:00am 11.2 8.5 -2.2 39 5.3 SSE 2 2 1 1 1018.3 1017.1 0.0
 
Date/Time
WST
Temp
°C
App
Temp
°C
Dew
Point
°C
Rel
Hum
%
Delta-T
°C
Wind Press
QNH
hPa
Press
MSL
hPa
Rain since
9am
mm
Dir  Spd
km/h
Gust
km/h
Spd
kts
Gust
kts
24/11:30pm 12.4 9.7 -2.2 36 5.9 SE 2 4 1 2 1018.5 1017.3 0.0
24/11:00pm 12.5 9.4 -2.5 35 6.0 SE 4 7 2 4 1018.6 1017.4 0.0
24/10:30pm 12.4 9.3 -2.6 35 6.0 SSE 4 4 2 2 1018.6 1017.4 0.0
24/10:00pm 13.6 10.5 -2.8 32 6.6 SE 4 6 2 3 1018.6 1017.4 0.0
24/09:30pm 14.2 10.7 -3.1 30 7.0 ESE 6 7 3 4 1018.6 1017.4 0.0
24/09:00pm 15.0 11.8 -3.3 28 7.4 SE 4 6 2 3 1018.6 1017.4 0.0
24/08:30pm 15.8 12.2 -3.6 26 7.9 SE 6 7 3 4 1018.5 1017.3 0.0
24/08:00pm 16.7 12.6 -3.4 25 8.2 SE 9 11 5 6 1018.4 1017.2 0.0

Other Formats:

Comma delimited format used in spreadsheet applications
http://www.bom.gov.au/fwo/IDW60801/IDW60801.99736.axf

JavaScript Object Notation format (JSON) in row-major order
http://www.bom.gov.au/fwo/IDW60801/IDW60801.99736.json